Time;durP1;ratioP1;P1;durP2;ratioP2;P2;SDS_P1;SDS_P2;PMS_P1;PMS_P2;Temp;Humidity;BMP_temperature;BMP_pressure;BME280_temperature;BME280_humidity;BME280_pressure;Samples;Min_cycle;Max_cycle;Signal;HPM_P1;HPM_P2
2022/03/18 00:00:38;;;;;;;19.53;9.43;;;9.20;77.30;;;;;;4987471;28;20466;-79
2022/03/18 00:03:07;;;;;;;23.33;13.77;;;9.20;77.20;;;;;;5001010;28;20478;-79
2022/03/18 00:05:36;;;;;;;25.30;13.40;;;9.10;77.30;;;;;;4999608;28;20469;-79
2022/03/18 00:08:05;;;;;;;22.83;12.10;;;9.10;77.30;;;;;;4987021;28;20461;-78
2022/03/18 00:10:34;;;;;;;26.63;13.80;;;9.10;77.30;;;;;;5001788;28;20482;-80
2022/03/18 00:13:03;;;;;;;52.27;20.63;;;9.10;77.30;;;;;;4983487;28;20469;-80
2022/03/18 00:15:31;;;;;;;47.80;19.33;;;9.10;77.20;;;;;;4985407;28;20493;-79
2022/03/18 00:17:59;;;;;;;83.07;28.10;;;9.00;77.20;;;;;;4983289;28;20476;-81
2022/03/18 00:20:27;;;;;;;38.43;16.63;;;9.00;77.30;;;;;;5002966;28;20472;-80
2022/03/18 00:22:55;;;;;;;23.10;11.37;;;9.00;77.40;;;;;;4984185;28;20453;-80
2022/03/18 00:25:24;;;;;;;49.23;19.47;;;9.00;77.40;;;;;;4986241;28;20462;-80
2022/03/18 00:27:53;;;;;;;46.73;19.60;;;9.10;77.30;;;;;;4985497;28;20466;-80
2022/03/18 00:30:21;;;;;;;58.53;23.23;;;9.10;77.20;;;;;;4985738;28;20460;-80
2022/03/18 00:32:51;;;;;;;35.63;14.77;;;9.10;77.30;;;;;;4998334;28;20486;-80
2022/03/18 00:35:36;;;;;;;73.43;27.23;;;9.00;77.30;;;;;;4984834;28;21206;-80
2022/03/18 00:38:04;;;;;;;39.67;16.10;;;9.00;77.30;;;;;;4985245;28;20454;-80
2022/03/18 00:40:33;;;;;;;61.03;22.43;;;9.00;77.30;;;;;;4995758;28;20483;-80
2022/03/18 00:43:03;;;;;;;57.67;24.07;;;9.00;77.20;;;;;;4984932;28;20986;-80
2022/03/18 00:45:32;;;;;;;45.20;19.17;;;9.00;77.20;;;;;;4986162;28;21314;-80
2022/03/18 00:53:32;;;;;;;39.03;16.37;;;9.00;77.30;;;;;;4982868;28;20958;-80
2022/03/18 00:56:00;;;;;;;20.67;12.53;;;9.00;77.40;;;;;;4998200;28;20478;-80
2022/03/18 00:58:29;;;;;;;18.85;12.25;;;9.00;77.40;;;;;;4985902;28;20469;-79
2022/03/18 01:00:57;;;;;;;22.30;13.17;;;9.00;77.40;;;;;;4998681;28;20241;-80
2022/03/18 01:03:26;;;;;;;27.83;13.33;;;9.00;77.30;;;;;;5000211;28;21088;-80
2022/03/18 01:05:54;;;;;;;27.20;13.57;;;9.00;77.30;;;;;;4983263;28;20464;-79
2022/03/18 01:08:22;;;;;;;38.87;15.83;;;9.00;77.30;;;;;;5000636;28;20461;-80
2022/03/18 01:10:50;;;;;;;39.50;17.67;;;9.00;77.40;;;;;;4986740;28;20585;-81
2022/03/18 01:13:18;;;;;;;30.23;15.00;;;9.00;77.40;;;;;;4984407;28;20484;-81
2022/03/18 01:15:48;;;;;;;34.70;16.17;;;9.00;77.30;;;;;;4984411;28;20489;-81
2022/03/18 01:18:16;;;;;;;23.20;12.03;;;8.90;77.30;;;;;;4985861;28;20481;-79
2022/03/18 01:20:44;;;;;;;26.37;13.30;;;8.90;77.40;;;;;;4999821;28;20465;-78
2022/03/18 01:23:13;;;;;;;38.50;18.63;;;8.90;77.40;;;;;;4985178;28;20457;-77
2022/03/18 01:25:41;;;;;;;29.97;15.80;;;8.90;77.40;;;;;;4983790;28;20469;-78
2022/03/18 01:28:09;;;;;;;36.03;17.20;;;8.90;77.40;;;;;;5000011;28;20466;-79
2022/03/18 01:30:37;;;;;;;22.40;12.83;;;8.80;77.50;;;;;;4985347;28;20557;-79
2022/03/18 01:33:06;;;;;;;27.83;14.00;;;8.80;77.60;;;;;;4983549;28;20560;-80
2022/03/18 01:35:34;;;;;;;32.37;14.20;;;8.70;77.60;;;;;;5000329;28;21033;-79
2022/03/18 01:38:02;;;;;;;24.10;13.70;;;8.70;77.60;;;;;;4986086;28;20478;-79
2022/03/18 01:40:31;;;;;;;33.53;16.20;;;8.80;77.70;;;;;;4990135;28;20454;-79
2022/03/18 01:42:59;;;;;;;26.97;13.17;;;8.80;77.70;;;;;;4988136;28;20461;-79
2022/03/18 01:45:27;;;;;;;15.00;9.43;;;8.80;77.70;;;;;;4987309;28;20473;-79
2022/03/18 01:47:55;;;;;;;34.93;16.40;;;8.80;77.70;;;;;;4988863;28;20466;-79
2022/03/18 01:50:24;;;;;;;43.33;21.33;;;8.80;77.60;;;;;;4989440;28;20454;-79
2022/03/18 01:52:53;;;;;;;35.07;16.63;;;8.80;77.70;;;;;;5003061;28;20512;-78
2022/03/18 01:55:22;;;;;;;14.93;10.30;;;8.90;77.70;;;;;;5002303;28;20465;-78
2022/03/18 01:57:51;;;;;;;62.37;26.10;;;8.90;77.60;;;;;;4988523;28;20476;-78
2022/03/18 02:00:20;;;;;;;30.50;16.67;;;8.90;77.60;;;;;;5003264;28;20472;-80
2022/03/18 02:02:48;;;;;;;27.30;16.33;;;8.90;77.60;;;;;;4987617;28;20493;-79
2022/03/18 02:05:17;;;;;;;29.77;17.17;;;8.90;77.60;;;;;;4988763;28;20540;-80
2022/03/18 02:07:48;;;;;;;19.80;10.80;;;8.90;77.60;;;;;;4989733;28;20458;-79
2022/03/18 02:10:16;;;;;;;28.13;14.30;;;9.00;77.60;;;;;;4989053;28;20457;-78
2022/03/18 02:12:43;;;;;;;26.03;13.40;;;9.00;77.60;;;;;;4989486;28;20478;-80
2022/03/18 02:15:17;;;;;;;14.97;9.03;;;9.00;77.50;;;;;;5002692;28;20695;-80
2022/03/18 02:17:45;;;;;;;15.90;9.80;;;9.00;77.50;;;;;;4989386;28;20474;-78
2022/03/18 02:20:13;;;;;;;20.90;11.33;;;9.00;77.50;;;;;;5004602;28;20801;-78
2022/03/18 02:22:42;;;;;;;13.30;9.00;;;9.00;77.50;;;;;;4988083;28;20596;-77
2022/03/18 02:25:12;;;;;;;14.77;8.60;;;9.00;77.50;;;;;;4988808;28;20465;-80
2022/03/18 02:27:42;;;;;;;15.80;9.83;;;9.00;77.50;;;;;;4986448;28;20458;-80
2022/03/18 02:30:10;;;;;;;15.27;9.43;;;9.00;77.40;;;;;;4987143;28;20474;-80
2022/03/18 02:32:39;;;;;;;18.80;10.10;;;8.90;77.40;;;;;;5003205;28;20477;-79
2022/03/18 02:35:07;;;;;;;17.40;9.10;;;8.90;77.50;;;;;;5001606;28;20465;-80
2022/03/18 02:37:35;;;;;;;20.10;9.80;;;8.90;77.50;;;;;;4987340;28;20482;-80
2022/03/18 02:40:06;;;;;;;14.97;9.20;;;8.90;77.50;;;;;;4990942;28;20476;-79
2022/03/18 02:42:34;;;;;;;16.67;9.43;;;8.90;77.50;;;;;;5000286;28;21134;-79
2022/03/18 02:45:03;;;;;;;15.13;9.63;;;8.90;77.50;;;;;;5003229;28;20465;-78
2022/03/18 02:47:31;;;;;;;16.90;9.90;;;8.90;77.50;;;;;;5000358;28;20458;-79
2022/03/18 02:49:59;;;;;;;17.87;9.60;;;8.90;77.40;;;;;;4985898;28;20476;-80
2022/03/18 02:52:27;;;;;;;20.20;10.13;;;8.90;77.30;;;;;;5001981;28;21136;-80
2022/03/18 02:54:55;;;;;;;13.50;8.63;;;8.80;77.30;;;;;;4990267;28;20474;-80
2022/03/18 02:57:25;;;;;;;12.00;8.27;;;8.80;77.50;;;;;;5002426;28;20470;-80
2022/03/18 02:59:53;;;;;;;12.00;8.27;;;8.80;77.40;;;;;;5002799;28;20458;-78
2022/03/18 03:02:21;;;;;;;14.73;8.50;;;8.80;77.40;;;;;;4986543;28;20501;-78
2022/03/18 03:10:20;;;;;;;22.83;11.20;;;8.80;77.50;;;;;;4987156;28;20461;-80
2022/03/18 03:12:50;;;;;;;14.97;9.90;;;8.80;77.40;;;;;;4983910;28;20492;-80
2022/03/18 03:15:18;;;;;;;12.20;8.80;;;8.70;77.30;;;;;;5001353;28;20469;-80
2022/03/18 03:17:46;;;;;;;29.57;14.17;;;8.70;77.30;;;;;;4986084;28;20844;-79
2022/03/18 03:20:15;;;;;;;13.53;8.63;;;8.70;77.40;;;;;;4991477;28;20465;-79
2022/03/18 03:22:43;;;;;;;21.40;12.33;;;8.70;77.40;;;;;;4986739;28;20474;-78
2022/03/18 03:25:11;;;;;;;23.17;11.13;;;8.70;77.40;;;;;;4987899;28;20516;-80
2022/03/18 03:27:39;;;;;;;16.83;9.23;;;8.70;77.40;;;;;;4987194;28;20469;-78
2022/03/18 03:30:10;;;;;;;29.50;12.90;;;8.70;77.40;;;;;;5001804;28;20461;-79
2022/03/18 03:32:39;;;;;;;23.30;13.00;;;8.60;77.40;;;;;;4998757;28;20507;-79
2022/03/18 03:35:08;;;;;;;29.07;11.80;;;8.60;77.40;;;;;;4983599;28;20520;-80
2022/03/18 03:37:36;;;;;;;25.83;10.70;;;8.60;77.30;;;;;;4999490;28;20467;-80
2022/03/18 03:40:06;;;;;;;16.30;8.07;;;8.60;77.40;;;;;;5000151;28;21190;-80
2022/03/18 03:42:34;;;;;;;15.97;9.10;;;8.60;77.40;;;;;;4986384;28;20477;-79
2022/03/18 03:45:02;;;;;;;16.63;8.37;;;8.60;77.40;;;;;;4986202;28;20469;-79
2022/03/18 03:47:31;;;;;;;12.43;7.87;;;8.60;77.40;;;;;;4988140;28;20490;-80
2022/03/18 03:49:59;;;;;;;15.60;8.60;;;8.60;77.20;;;;;;5001649;28;20648;-79
2022/03/18 03:52:27;;;;;;;22.30;10.07;;;8.60;77.10;;;;;;4997651;28;20536;-79
2022/03/18 03:54:55;;;;;;;23.70;8.97;;;8.60;77.20;;;;;;4985428;28;20474;-80
2022/03/18 03:57:23;;;;;;;18.50;8.93;;;8.60;77.20;;;;;;4985882;28;20461;-79
2022/03/18 03:59:52;;;;;;;13.43;7.80;;;8.60;77.20;;;;;;4991115;28;20552;-79
2022/03/18 04:02:20;;;;;;;11.57;7.17;;;8.60;77.10;;;;;;5001098;28;20493;-78
2022/03/18 04:04:50;;;;;;;34.20;14.30;;;8.60;77.10;;;;;;4986780;28;20457;-80
2022/03/18 04:07:18;;;;;;;14.40;8.03;;;8.60;77.10;;;;;;4991873;28;20473;-80
2022/03/18 04:09:49;;;;;;;28.23;10.90;;;8.60;77.10;;;;;;4988009;28;20569;-80
2022/03/18 04:12:17;;;;;;;25.17;11.40;;;8.60;77.00;;;;;;5001681;28;20490;-80
2022/03/18 04:14:45;;;;;;;14.87;8.20;;;8.50;76.90;;;;;;4987540;28;20190;-80
2022/03/18 04:17:13;;;;;;;25.77;12.73;;;8.50;76.90;;;;;;4983695;28;20488;-80
2022/03/18 04:19:41;;;;;;;22.90;10.90;;;8.50;76.90;;;;;;5001919;28;20280;-79
2022/03/18 04:22:10;;;;;;;13.43;7.37;;;8.50;76.90;;;;;;4985428;28;20481;-80
2022/03/18 04:24:38;;;;;;;30.93;12.47;;;8.50;76.80;;;;;;5000913;28;20469;-80
2022/03/18 04:27:06;;;;;;;15.10;8.00;;;8.50;76.80;;;;;;4984071;28;20458;-80
2022/03/18 04:29:35;;;;;;;24.90;10.90;;;8.50;76.80;;;;;;4986607;28;20461;-80
2022/03/18 04:32:03;;;;;;;20.88;10.50;;;8.50;76.80;;;;;;5000872;28;20489;-80
2022/03/18 04:34:31;;;;;;;23.77;8.13;;;8.40;76.60;;;;;;4985295;28;20672;-78
2022/03/18 04:36:58;;;;;;;18.58;8.27;;;8.40;76.80;;;;;;5001684;28;20466;-78
2022/03/18 04:39:28;;;;;;;29.77;11.20;;;8.50;76.80;;;;;;4999522;28;20225;-81
2022/03/18 04:41:56;;;;;;;15.10;7.30;;;8.40;76.70;;;;;;4983063;28;20228;-80
2022/03/18 04:44:24;;;;;;;21.80;10.70;;;8.50;76.70;;;;;;5006119;28;20449;-80
2022/03/18 04:46:52;;;;;;;22.27;10.40;;;8.50;76.70;;;;;;5001286;28;20478;-81
2022/03/18 04:49:20;;;;;;;17.90;8.07;;;8.50;76.50;;;;;;4987396;28;20541;-81
2022/03/18 04:51:48;;;;;;;12.80;6.83;;;8.40;76.50;;;;;;4987353;28;20234;-80
2022/03/18 04:54:16;;;;;;;22.60;8.90;;;8.50;76.50;;;;;;5000261;28;20568;-80
2022/03/18 04:59:36;;;;;;;22.93;10.20;;;8.40;76.50;;;;;;4982254;28;20489;-79
2022/03/18 05:02:05;;;;;;;21.17;8.87;;;8.40;76.40;;;;;;4984797;28;21225;-80
2022/03/18 05:04:33;;;;;;;24.90;9.03;;;8.40;76.40;;;;;;5002101;28;20466;-79
2022/03/18 05:07:02;;;;;;;23.23;11.30;;;8.40;76.50;;;;;;4986147;28;20485;-79
2022/03/18 05:09:31;;;;;;;20.47;11.60;;;8.40;76.30;;;;;;4987280;28;20545;-78
2022/03/18 05:12:00;;;;;;;20.37;7.50;;;8.40;76.40;;;;;;5010540;28;20485;-81
2022/03/18 05:14:28;;;;;;;15.07;7.60;;;8.40;76.30;;;;;;4986884;28;20713;-81
2022/03/18 05:16:56;;;;;;;21.20;9.10;;;8.40;76.30;;;;;;4991358;28;20482;-81
2022/03/18 05:19:24;;;;;;;17.57;8.27;;;8.30;76.40;;;;;;5005918;28;20886;-79
2022/03/18 05:21:52;;;;;;;12.93;6.70;;;8.40;76.30;;;;;;4991263;28;20473;-79
2022/03/18 05:24:20;;;;;;;19.17;9.00;;;8.40;76.30;;;;;;4989470;28;20461;-79
2022/03/18 05:26:48;;;;;;;16.10;8.17;;;8.40;76.30;;;;;;4991012;28;20466;-80
2022/03/18 05:29:18;;;;;;;20.60;10.17;;;8.30;76.30;;;;;;5004781;28;20456;-80
2022/03/18 05:31:46;;;;;;;20.70;7.47;;;8.30;76.40;;;;;;4991520;28;20478;-80
2022/03/18 05:34:14;;;;;;;23.43;10.03;;;8.30;76.30;;;;;;4989375;28;20454;-80
2022/03/18 05:36:43;;;;;;;23.13;10.03;;;8.30;76.40;;;;;;4993159;28;20462;-80
2022/03/18 05:39:11;;;;;;;16.93;8.27;;;8.30;76.30;;;;;;4987844;28;20484;-78
2022/03/18 05:41:42;;;;;;;18.17;8.43;;;8.30;76.40;;;;;;5001573;28;20466;-81
2022/03/18 05:44:11;;;;;;;13.07;6.57;;;8.30;76.30;;;;;;5001927;28;20998;-80
2022/03/18 05:46:46;;;;;;;20.40;8.77;;;8.30;76.10;;;;;;5004374;28;20485;-81
2022/03/18 05:49:15;;;;;;;16.63;6.37;;;8.30;76.10;;;;;;5004455;28;20530;-80
2022/03/18 05:51:43;;;;;;;17.30;8.33;;;8.20;76.10;;;;;;5001270;28;20485;-80
2022/03/18 05:54:11;;;;;;;16.87;7.70;;;8.20;76.30;;;;;;5005910;28;20504;-80
2022/03/18 05:56:54;;;;;;;14.83;6.80;;;8.20;76.30;;;;;;5004822;28;20520;-79
2022/03/18 05:59:24;;;;;;;18.00;6.63;;;8.20;76.30;;;;;;4987751;28;20556;-80
2022/03/18 06:01:56;;;;;;;13.33;6.47;;;8.20;76.40;;;;;;5004318;28;20481;-81
2022/03/18 06:04:25;;;;;;;13.80;7.53;;;8.20;76.40;;;;;;5003243;28;20899;-80
2022/03/18 06:06:53;;;;;;;13.73;6.77;;;8.20;76.40;;;;;;4990354;28;20462;-82
2022/03/18 06:12:08;;;;;;;14.73;8.18;;;8.10;76.50;;;;;;4988119;28;20227;-82
2022/03/18 06:14:37;;;;;;;19.70;8.10;;;8.10;76.50;;;;;;4987677;28;20211;-82
2022/03/18 06:17:06;;;;;;;14.70;6.77;;;8.20;76.50;;;;;;5004539;28;21069;-82
2022/03/18 06:19:35;;;;;;;16.33;6.13;;;8.10;76.50;;;;;;4989821;28;20810;-80
2022/03/18 06:22:04;;;;;;;15.70;6.47;;;8.20;76.40;;;;;;4989338;28;20466;-81
2022/03/18 06:24:32;;;;;;;11.77;6.50;;;8.20;76.50;;;;;;4987398;28;20198;-81
2022/03/18 06:27:00;;;;;;;16.47;7.17;;;8.20;76.50;;;;;;4986926;28;20469;-81
2022/03/18 06:29:29;;;;;;;18.85;7.75;;;8.10;76.50;;;;;;5004991;28;20469;-81
2022/03/18 06:31:58;;;;;;;16.70;6.23;;;8.10;76.50;;;;;;5003924;28;20234;-81
2022/03/18 06:34:28;;;;;;;21.98;9.52;;;8.20;76.50;;;;;;4986710;28;20464;-81
2022/03/18 06:37:00;;;;;;;14.50;6.87;;;8.20;76.50;;;;;;5004514;28;20665;-82
2022/03/18 06:39:28;;;;;;;13.80;6.90;;;8.20;76.50;;;;;;5001445;28;20470;-81
2022/03/18 06:41:56;;;;;;;13.17;6.97;;;8.20;76.50;;;;;;4999861;28;20564;-81
2022/03/18 06:44:24;;;;;;;27.40;12.20;;;8.20;76.60;;;;;;5002373;28;20462;-81
2022/03/18 06:46:52;;;;;;;13.50;5.77;;;8.20;76.60;;;;;;4988677;28;20477;-81
2022/03/18 06:49:20;;;;;;;15.07;7.30;;;8.30;76.60;;;;;;5004143;28;20465;-82
2022/03/18 06:51:50;;;;;;;22.70;11.27;;;8.30;76.60;;;;;;5004017;28;20540;-82
2022/03/18 06:54:18;;;;;;;13.53;5.47;;;8.30;76.60;;;;;;4986439;28;20481;-82
2022/03/18 06:56:46;;;;;;;20.30;8.73;;;8.30;76.60;;;;;;5004265;28;20466;-82
2022/03/18 06:59:14;;;;;;;26.20;10.37;;;8.30;76.50;;;;;;5005601;28;21069;-82
2022/03/18 07:01:42;;;;;;;26.07;11.10;;;8.40;76.50;;;;;;5010792;28;21149;-81
2022/03/18 07:04:10;;;;;;;19.30;7.20;;;8.40;76.40;;;;;;4999512;28;20465;-80
2022/03/18 07:06:38;;;;;;;31.50;10.43;;;8.40;76.30;;;;;;4992032;28;21041;-81
2022/03/18 07:09:07;;;;;;;22.70;8.00;;;8.40;76.10;;;;;;4987884;28;20462;-80
2022/03/18 07:11:35;;;;;;;19.60;8.07;;;8.40;76.10;;;;;;4989888;28;20470;-80
2022/03/18 07:14:03;;;;;;;20.47;8.63;;;8.30;76.30;;;;;;4988236;28;20461;-82
2022/03/18 07:19:16;;;;;;;23.90;8.97;;;8.40;76.10;;;;;;4986441;28;20461;-83
2022/03/18 07:21:44;;;;;;;17.43;7.47;;;8.40;76.30;;;;;;4988857;28;20480;-82
2022/03/18 07:24:14;;;;;;;13.63;6.70;;;8.40;76.20;;;;;;5003322;28;20712;-82
2022/03/18 07:26:42;;;;;;;21.43;8.47;;;8.50;76.20;;;;;;4989260;28;20472;-81
2022/03/18 07:29:10;;;;;;;17.40;9.43;;;8.50;76.30;;;;;;5001364;28;20462;-82
2022/03/18 07:31:37;;;;;;;20.73;7.27;;;8.60;76.10;;;;;;4987914;28;21307;-81
2022/03/18 07:34:06;;;;;;;12.27;7.57;;;8.50;75.80;;;;;;5002888;28;20464;-82
2022/03/18 07:36:34;;;;;;;17.60;7.10;;;8.50;75.90;;;;;;4988975;28;20888;-81
2022/03/18 07:39:02;;;;;;;16.95;7.55;;;8.50;76.00;;;;;;4999416;28;20859;-81
2022/03/18 07:41:31;;;;;;;16.80;7.03;;;8.50;75.90;;;;;;4994044;28;20481;-81
2022/03/18 07:43:59;;;;;;;19.30;7.83;;;8.50;76.00;;;;;;4989521;28;20493;-82
2022/03/18 07:46:27;;;;;;;21.23;8.90;;;8.60;75.90;;;;;;4985961;28;20482;-81
2022/03/18 07:48:55;;;;;;;19.10;7.60;;;8.60;75.90;;;;;;4987516;28;20465;-82
2022/03/18 07:51:23;;;;;;;19.60;9.00;;;8.60;75.70;;;;;;4986907;28;20496;-81
2022/03/18 07:53:51;;;;;;;15.77;7.20;;;8.60;75.70;;;;;;4982027;28;20501;-82
2022/03/18 07:56:19;;;;;;;21.77;8.53;;;8.60;75.60;;;;;;4988547;28;20728;-82
2022/03/18 07:58:49;;;;;;;17.40;7.50;;;8.60;75.60;;;;;;5003673;28;20469;-82
2022/03/18 08:01:17;;;;;;;18.60;6.27;;;8.60;75.70;;;;;;5001626;28;20916;-82
2022/03/18 08:03:45;;;;;;;11.87;6.27;;;8.60;75.50;;;;;;4987468;28;21033;-81
2022/03/18 08:06:13;;;;;;;15.27;7.53;;;8.60;75.30;;;;;;5002613;28;20457;-81
2022/03/18 08:08:41;;;;;;;26.27;8.52;;;8.60;75.40;;;;;;4988868;28;20456;-80
2022/03/18 08:11:09;;;;;;;18.27;7.40;;;8.60;75.20;;;;;;4988562;28;20240;-81
2022/03/18 08:13:37;;;;;;;24.23;8.90;;;8.50;75.10;;;;;;5002586;28;21077;-82
2022/03/18 08:16:07;;;;;;;20.80;8.63;;;8.50;75.30;;;;;;5003044;28;20851;-82
2022/03/18 08:18:39;;;;;;;19.93;9.03;;;8.50;75.30;;;;;;4988470;28;20454;-82
2022/03/18 08:21:07;;;;;;;21.27;8.33;;;8.60;75.40;;;;;;4987006;28;20956;-82
2022/03/18 08:23:36;;;;;;;25.60;10.00;;;8.60;74.70;;;;;;4987384;28;20461;-81
2022/03/18 08:26:04;;;;;;;28.37;9.17;;;8.60;75.10;;;;;;4988780;28;20494;-82
2022/03/18 08:28:32;;;;;;;24.10;8.33;;;8.60;75.20;;;;;;5001691;28;20476;-81
2022/03/18 08:31:00;;;;;;;20.20;7.87;;;8.70;75.20;;;;;;5001766;28;20492;-81
2022/03/18 08:33:31;;;;;;;24.53;8.73;;;8.70;75.10;;;;;;5008203;28;20450;-81
2022/03/18 08:35:58;;;;;;;18.70;8.30;;;8.70;74.70;;;;;;4996224;28;20472;-81
2022/03/18 08:38:27;;;;;;;18.13;7.57;;;8.70;74.50;;;;;;4996201;28;20544;-81
2022/03/18 08:40:54;;;;;;;14.60;5.90;;;8.70;74.50;;;;;;4995901;28;20563;-81
2022/03/18 08:43:22;;;;;;;18.73;7.50;;;8.70;74.50;;;;;;5006237;28;21206;-80
2022/03/18 08:45:51;;;;;;;19.47;7.83;;;8.70;74.70;;;;;;5002482;28;20492;-81
2022/03/18 08:48:19;;;;;;;18.90;8.43;;;8.70;74.30;;;;;;5003140;28;20454;-80
2022/03/18 08:50:48;;;;;;;22.87;9.93;;;8.70;74.20;;;;;;5003296;28;20465;-83
2022/03/18 08:53:16;;;;;;;15.13;7.03;;;8.70;74.20;;;;;;5002131;28;20468;-81
2022/03/18 08:55:44;;;;;;;20.63;7.03;;;8.70;74.50;;;;;;4983069;28;20469;-82
2022/03/18 08:58:12;;;;;;;21.07;8.77;;;8.80;74.50;;;;;;5002262;28;20978;-81
2022/03/18 09:00:40;;;;;;;13.80;6.70;;;8.80;74.50;;;;;;4987575;28;20569;-82
2022/03/18 09:03:08;;;;;;;26.70;10.97;;;8.90;73.80;;;;;;5002078;28;20462;-82
2022/03/18 09:05:36;;;;;;;15.57;7.90;;;8.90;73.80;;;;;;4987164;28;20462;-81
2022/03/18 09:08:06;;;;;;;15.90;8.60;;;9.00;73.90;;;;;;5001175;28;20470;-82
2022/03/18 09:10:34;;;;;;;17.90;9.70;;;9.00;73.90;;;;;;4987744;28;21152;-81
2022/03/18 09:13:08;;;;;;;22.13;9.33;;;9.10;74.00;;;;;;5001948;28;20489;-81
2022/03/18 09:15:36;;;;;;;20.30;10.00;;;9.10;73.90;;;;;;4998584;28;20477;-82
2022/03/18 09:18:04;;;;;;;20.87;11.20;;;9.20;73.50;;;;;;4989462;28;20470;-82
2022/03/18 09:20:32;;;;;;;27.63;13.57;;;9.20;73.10;;;;;;4987889;28;20601;-81
2022/03/18 09:23:00;;;;;;;31.10;15.47;;;9.20;73.30;;;;;;4984881;28;20477;-81
2022/03/18 09:25:29;;;;;;;21.43;11.17;;;9.30;73.40;;;;;;4987485;28;20462;-81
2022/03/18 09:27:58;;;;;;;60.87;28.77;;;9.30;73.20;;;;;;4986975;28;20516;-81
2022/03/18 09:30:47;;;;;;;20.83;10.50;;;9.30;72.90;;;;;;5000780;28;20473;-81
2022/03/18 09:33:15;;;;;;;35.60;19.23;;;9.30;72.50;;;;;;5000283;28;20455;-82
2022/03/18 09:35:44;;;;;;;23.60;13.80;;;9.30;72.40;;;;;;5003099;28;20461;-82
2022/03/18 09:38:12;;;;;;;22.47;12.20;;;9.30;72.70;;;;;;4985935;28;21218;-82
2022/03/18 09:40:42;;;;;;;17.10;8.50;;;9.40;72.90;;;;;;4986131;28;20474;-81
2022/03/18 09:43:33;;;;;;;20.73;11.83;;;9.40;72.60;;;;;;5000824;28;20454;-82
2022/03/18 09:46:03;;;;;;;13.80;7.27;;;9.50;72.80;;;;;;4986918;28;21194;-81
2022/03/18 09:48:52;;;;;;;13.93;6.53;;;9.60;72.50;;;;;;4986348;28;20457;-81
2022/03/18 09:51:20;;;;;;;21.63;9.93;;;9.60;72.20;;;;;;4987251;28;20494;-81
2022/03/18 09:54:08;;;;;;;13.50;8.30;;;9.70;72.30;;;;;;4985647;28;20457;-82
2022/03/18 09:56:40;;;;;;;22.33;9.40;;;9.70;72.20;;;;;;4989832;28;20815;-82
2022/03/18 09:59:08;;;;;;;15.93;8.70;;;9.80;72.10;;;;;;5003821;28;20473;-82
2022/03/18 10:01:37;;;;;;;14.73;7.57;;;9.80;71.80;;;;;;4987814;28;20481;-82
2022/03/18 10:04:07;;;;;;;16.33;7.70;;;9.90;71.80;;;;;;4991402;28;20477;-82
2022/03/18 10:06:35;;;;;;;14.60;8.00;;;9.90;71.90;;;;;;5005176;28;20545;-82
2022/03/18 10:09:04;;;;;;;21.03;9.03;;;10.00;71.70;;;;;;5005421;28;20457;-82
2022/03/18 10:11:35;;;;;;;14.40;7.17;;;10.00;71.80;;;;;;5005482;28;20485;-81
2022/03/18 10:14:07;;;;;;;12.00;6.30;;;10.10;71.70;;;;;;4989624;28;20449;-81
2022/03/18 10:16:37;;;;;;;15.73;8.43;;;10.10;71.50;;;;;;4989978;28;20469;-82
2022/03/18 10:19:07;;;;;;;21.10;8.53;;;10.00;70.30;;;;;;5004815;28;20466;-82
2022/03/18 10:21:50;;;;;;;26.00;9.70;;;10.10;71.40;;;;;;5005458;28;20501;-82
2022/03/18 10:24:22;;;;;;;18.00;9.27;;;10.10;71.50;;;;;;5002960;28;20873;-82
2022/03/18 10:26:50;;;;;;;17.37;8.73;;;10.20;71.10;;;;;;4989918;28;20469;-82
2022/03/18 10:29:20;;;;;;;17.57;8.23;;;10.20;71.10;;;;;;4989288;28;20449;-82
2022/03/18 10:32:00;;;;;;;24.57;10.30;;;10.20;71.10;;;;;;5004479;28;21263;-81
2022/03/18 10:37:22;;;;;;;15.17;7.80;;;10.20;71.10;;;;;;5004115;28;20472;-81
2022/03/18 10:39:51;;;;;;;23.77;10.80;;;10.30;70.90;;;;;;5005055;28;20466;-81
2022/03/18 10:42:20;;;;;;;19.17;10.10;;;10.30;70.80;;;;;;5004572;28;20569;-81
2022/03/18 10:44:51;;;;;;;13.83;7.80;;;10.40;71.00;;;;;;4989333;28;20461;-84
2022/03/18 10:47:28;;;;;;;19.47;8.60;;;10.40;70.70;;;;;;5003982;28;20478;-82
2022/03/18 10:50:16;;;;;;;15.10;7.93;;;10.40;70.70;;;;;;4995467;28;20472;-82
2022/03/18 10:53:07;;;;;;;16.93;7.30;;;10.40;70.30;;;;;;5003658;28;20481;-81
2022/03/18 10:55:38;;;;;;;17.03;8.70;;;10.40;70.30;;;;;;5001142;28;20521;-83
2022/03/18 10:58:10;;;;;;;23.20;9.60;;;10.30;70.40;;;;;;5002994;28;20473;-81
2022/03/18 11:00:43;;;;;;;15.20;7.93;;;10.30;70.60;;;;;;4988950;28;20470;-82
2022/03/18 11:03:13;;;;;;;19.20;8.67;;;10.40;70.70;;;;;;4986574;28;20478;-82
2022/03/18 11:05:43;;;;;;;13.93;8.00;;;10.50;70.60;;;;;;5003295;28;20457;-80
2022/03/18 11:08:13;;;;;;;17.60;8.27;;;10.60;70.60;;;;;;4998023;28;20530;-80
2022/03/18 11:13:37;;;;;;;19.63;8.60;;;10.70;70.40;;;;;;4988706;28;20454;-80
2022/03/18 11:16:06;;;;;;;21.67;10.97;;;10.80;70.30;;;;;;4986106;28;20946;-81
2022/03/18 11:18:36;;;;;;;18.40;9.77;;;10.80;70.20;;;;;;5003022;28;20464;-81
2022/03/18 11:21:06;;;;;;;21.40;9.23;;;10.80;69.90;;;;;;5003230;28;20886;-82
2022/03/18 11:23:35;;;;;;;18.63;8.93;;;10.80;70.20;;;;;;4986117;28;20485;-81
2022/03/18 11:26:03;;;;;;;15.67;8.50;;;10.80;70.30;;;;;;5001102;28;20465;-79
2022/03/18 11:28:31;;;;;;;15.73;8.40;;;10.90;70.30;;;;;;4983544;28;20461;-80
2022/03/18 11:31:06;;;;;;;18.27;9.40;;;11.00;70.30;;;;;;4987414;28;20489;-80
2022/03/18 11:33:34;;;;;;;18.20;9.07;;;11.10;70.20;;;;;;4986950;28;20449;-80
2022/03/18 11:36:05;;;;;;;19.73;8.60;;;11.10;70.20;;;;;;4986205;28;20449;-79
2022/03/18 11:38:56;;;;;;;23.70;9.30;;;11.10;69.80;;;;;;4988736;28;20520;-81
2022/03/18 11:41:45;;;;;;;14.93;8.27;;;11.20;70.10;;;;;;4985925;28;21298;-81
2022/03/18 11:44:40;;;;;;;17.60;8.87;;;11.30;69.90;;;;;;4987550;28;20460;-81
2022/03/18 11:47:38;;;;;;;20.70;10.10;;;11.40;69.90;;;;;;5004397;28;20508;-81
2022/03/18 11:50:45;;;;;;;16.60;7.67;;;11.40;69.90;;;;;;5007212;28;20458;-81
2022/03/18 11:53:15;;;;;;;14.87;7.17;;;11.40;69.60;;;;;;4989509;28;20445;-79
2022/03/18 11:55:46;;;;;;;13.67;7.60;;;11.40;69.70;;;;;;4993073;28;20532;-79
2022/03/18 11:58:32;;;;;;;16.67;8.90;;;11.40;69.40;;;;;;4996797;28;20457;-80
2022/03/18 12:01:00;;;;;;;12.87;7.30;;;11.50;69.50;;;;;;4998106;28;20550;-79
2022/03/18 12:03:35;;;;;;;16.50;7.83;;;11.50;69.40;;;;;;5011663;28;21023;-79
2022/03/18 12:06:04;;;;;;;17.33;7.63;;;11.50;69.40;;;;;;5010528;28;20477;-80
2022/03/18 12:09:02;;;;;;;14.20;7.23;;;11.50;69.30;;;;;;4994395;28;20642;-81
2022/03/18 12:11:33;;;;;;;16.13;8.47;;;11.50;69.10;;;;;;4989970;28;20469;-81
2022/03/18 12:14:06;;;;;;;16.97;8.33;;;11.40;68.80;;;;;;5003391;28;20473;-81
2022/03/18 12:16:34;;;;;;;21.03;8.40;;;11.30;68.80;;;;;;4989300;28;20476;-80
2022/03/18 12:19:23;;;;;;;15.20;8.20;;;11.30;69.20;;;;;;4988480;28;20462;-80
2022/03/18 12:21:52;;;;;;;18.43;8.23;;;11.30;69.30;;;;;;5002930;28;20523;-81
2022/03/18 12:24:28;;;;;;;20.17;8.73;;;11.30;69.10;;;;;;5002828;28;21229;-80
2022/03/18 12:26:56;;;;;;;14.73;8.30;;;11.30;69.10;;;;;;4985342;28;20465;-79
2022/03/18 12:29:27;;;;;;;14.57;7.60;;;11.30;68.80;;;;;;5003301;28;20536;-81
2022/03/18 12:32:03;;;;;;;21.73;8.73;;;11.20;68.80;;;;;;4991118;28;20473;-78
2022/03/18 12:34:34;;;;;;;14.77;7.63;;;11.20;68.80;;;;;;4984548;28;20818;-80
2022/03/18 12:37:03;;;;;;;16.90;8.50;;;11.20;68.90;;;;;;5002355;28;20500;-80
2022/03/18 12:39:31;;;;;;;15.63;8.03;;;11.20;69.00;;;;;;4987816;28;20474;-80
2022/03/18 12:42:11;;;;;;;19.17;7.73;;;11.20;69.10;;;;;;4983654;28;20497;-80
2022/03/18 12:44:44;;;;;;;19.73;10.17;;;11.20;69.00;;;;;;4999172;28;20450;-79
2022/03/18 12:47:13;;;;;;;20.70;9.60;;;11.30;69.10;;;;;;4986433;28;20472;-80
2022/03/18 12:49:42;;;;;;;17.47;9.60;;;11.40;69.00;;;;;;5003043;28;20469;-80
2022/03/18 12:52:12;;;;;;;19.57;9.30;;;11.40;69.00;;;;;;4986746;28;20513;-80
2022/03/18 12:55:03;;;;;;;16.23;9.63;;;11.40;69.00;;;;;;4987964;28;20470;-79
2022/03/18 12:57:34;;;;;;;18.60;10.20;;;11.50;69.00;;;;;;5003295;28;20462;-80
2022/03/18 13:00:02;;;;;;;19.40;10.63;;;11.50;69.10;;;;;;5001370;28;20482;-78
2022/03/18 13:02:51;;;;;;;17.03;10.67;;;11.50;69.00;;;;;;4982953;28;20941;-78
2022/03/18 13:05:26;;;;;;;17.40;10.00;;;11.60;69.00;;;;;;4987190;28;20449;-80
2022/03/18 13:07:57;;;;;;;19.80;10.60;;;11.60;69.10;;;;;;4985525;28;20456;-79
2022/03/18 13:10:26;;;;;;;28.93;12.10;;;11.60;69.20;;;;;;4996351;28;20973;-79
2022/03/18 13:13:05;;;;;;;20.97;11.63;;;11.70;69.10;;;;;;4986810;28;20472;-78
2022/03/18 13:15:34;;;;;;;22.47;12.13;;;11.80;69.10;;;;;;4993353;28;21221;-80
2022/03/18 13:18:11;;;;;;;26.23;13.27;;;11.80;68.80;;;;;;4987005;28;21065;-80
2022/03/18 13:20:41;;;;;;;20.50;12.47;;;11.90;68.70;;;;;;4987561;28;21026;-79